sensor_id;sensor_type;location;lat;lon;timestamp;temperature;humidity
21787;DHT22;11055;50.870;4.316;2023-04-06T00:01:35;11.20;56.10
21787;DHT22;11055;50.870;4.316;2023-04-06T00:04:01;11.20;56.00
21787;DHT22;11055;50.870;4.316;2023-04-06T00:06:27;11.30;56.10
21787;DHT22;11055;50.870;4.316;2023-04-06T00:08:53;11.30;56.00
21787;DHT22;11055;50.870;4.316;2023-04-06T00:11:18;11.20;56.10
21787;DHT22;11055;50.870;4.316;2023-04-06T00:13:45;11.10;56.40
21787;DHT22;11055;50.870;4.316;2023-04-06T00:16:10;11.00;56.70
21787;DHT22;11055;50.870;4.316;2023-04-06T00:18:36;11.00;57.30
21787;DHT22;11055;50.870;4.316;2023-04-06T00:21:02;10.90;57.70
21787;DHT22;11055;50.870;4.316;2023-04-06T00:23:28;10.90;58.10
21787;DHT22;11055;50.870;4.316;2023-04-06T00:25:54;10.70;58.70
21787;DHT22;11055;50.870;4.316;2023-04-06T00:28:20;10.70;59.30
21787;DHT22;11055;50.870;4.316;2023-04-06T00:30:51;10.60;59.80
21787;DHT22;11055;50.870;4.316;2023-04-06T00:33:18;10.50;60.20
21787;DHT22;11055;50.870;4.316;2023-04-06T00:35:44;10.60;61.00
21787;DHT22;11055;50.870;4.316;2023-04-06T00:38:11;10.50;61.20
21787;DHT22;11055;50.870;4.316;2023-04-06T00:40:36;10.40;61.70
21787;DHT22;11055;50.870;4.316;2023-04-06T00:43:02;10.30;62.40
21787;DHT22;11055;50.870;4.316;2023-04-06T00:45:28;10.40;62.90
21787;DHT22;11055;50.870;4.316;2023-04-06T00:47:54;10.40;62.70
21787;DHT22;11055;50.870;4.316;2023-04-06T00:50:19;10.50;62.30
21787;DHT22;11055;50.870;4.316;2023-04-06T00:52:45;10.50;62.40
21787;DHT22;11055;50.870;4.316;2023-04-06T00:55:11;10.40;63.40
21787;DHT22;11055;50.870;4.316;2023-04-06T00:57:37;10.40;63.70
21787;DHT22;11055;50.870;4.316;2023-04-06T01:00:03;10.30;64.00
21787;DHT22;11055;50.870;4.316;2023-04-06T01:02:29;10.50;63.80
21787;DHT22;11055;50.870;4.316;2023-04-06T01:04:55;10.50;64.50
21787;DHT22;11055;50.870;4.316;2023-04-06T01:07:21;10.50;64.60
21787;DHT22;11055;50.870;4.316;2023-04-06T01:09:46;10.50;65.30
21787;DHT22;11055;50.870;4.316;2023-04-06T01:12:12;10.40;65.30
21787;DHT22;11055;50.870;4.316;2023-04-06T01:14:38;10.40;66.60
21787;DHT22;11055;50.870;4.316;2023-04-06T01:17:03;10.40;66.40
21787;DHT22;11055;50.870;4.316;2023-04-06T01:19:29;10.40;66.90
21787;DHT22;11055;50.870;4.316;2023-04-06T01:21:55;10.50;66.80
21787;DHT22;11055;50.870;4.316;2023-04-06T01:24:21;10.40;66.90
21787;DHT22;11055;50.870;4.316;2023-04-06T01:26:47;10.40;67.30
21787;DHT22;11055;50.870;4.316;2023-04-06T01:29:13;10.30;68.20
21787;DHT22;11055;50.870;4.316;2023-04-06T01:31:39;10.20;69.00
21787;DHT22;11055;50.870;4.316;2023-04-06T01:34:05;10.10;69.40
21787;DHT22;11055;50.870;4.316;2023-04-06T01:36:31;10.00;70.60
21787;DHT22;11055;50.870;4.316;2023-04-06T01:38:57;9.90;70.70
21787;DHT22;11055;50.870;4.316;2023-04-06T01:41:23;9.90;71.60
21787;DHT22;11055;50.870;4.316;2023-04-06T01:43:49;9.90;72.30
21787;DHT22;11055;50.870;4.316;2023-04-06T01:46:15;9.80;72.80
21787;DHT22;11055;50.870;4.316;2023-04-06T01:48:41;9.90;72.80
21787;DHT22;11055;50.870;4.316;2023-04-06T01:51:07;9.90;73.00
21787;DHT22;11055;50.870;4.316;2023-04-06T01:53:33;9.80;73.30
21787;DHT22;11055;50.870;4.316;2023-04-06T01:55:59;9.90;73.60
21787;DHT22;11055;50.870;4.316;2023-04-06T01:58:24;9.90;73.90
21787;DHT22;11055;50.870;4.316;2023-04-06T02:00:50;9.90;74.00
21787;DHT22;11055;50.870;4.316;2023-04-06T02:03:16;9.90;74.20
21787;DHT22;11055;50.870;4.316;2023-04-06T02:05:42;10.00;73.80
21787;DHT22;11055;50.870;4.316;2023-04-06T02:08:08;10.00;74.20
21787;DHT22;11055;50.870;4.316;2023-04-06T02:10:34;10.00;73.70
21787;DHT22;11055;50.870;4.316;2023-04-06T02:13:00;10.00;73.90
21787;DHT22;11055;50.870;4.316;2023-04-06T02:15:26;10.00;74.50
21787;DHT22;11055;50.870;4.316;2023-04-06T02:17:53;10.00;74.60
21787;DHT22;11055;50.870;4.316;2023-04-06T02:20:18;10.00;74.70
21787;DHT22;11055;50.870;4.316;2023-04-06T02:22:45;10.00;75.00
21787;DHT22;11055;50.870;4.316;2023-04-06T02:25:10;10.00;75.40
21787;DHT22;11055;50.870;4.316;2023-04-06T02:27:37;9.90;75.70
21787;DHT22;11055;50.870;4.316;2023-04-06T02:30:03;9.90;76.70
21787;DHT22;11055;50.870;4.316;2023-04-06T02:32:29;9.90;77.00
21787;DHT22;11055;50.870;4.316;2023-04-06T02:34:55;9.90;77.20
21787;DHT22;11055;50.870;4.316;2023-04-06T02:37:21;9.90;77.40
21787;DHT22;11055;50.870;4.316;2023-04-06T02:39:48;9.90;77.20
21787;DHT22;11055;50.870;4.316;2023-04-06T02:42:14;9.80;78.00
21787;DHT22;11055;50.870;4.316;2023-04-06T02:44:41;9.70;79.00
21787;DHT22;11055;50.870;4.316;2023-04-06T02:47:07;9.60;79.90
21787;DHT22;11055;50.870;4.316;2023-04-06T02:49:32;9.50;80.80
21787;DHT22;11055;50.870;4.316;2023-04-06T02:51:58;9.60;82.40
21787;DHT22;11055;50.870;4.316;2023-04-06T02:54:24;9.60;82.00
21787;DHT22;11055;50.870;4.316;2023-04-06T02:56:49;9.60;82.20
21787;DHT22;11055;50.870;4.316;2023-04-06T02:59:15;9.60;82.80
21787;DHT22;11055;50.870;4.316;2023-04-06T03:01:41;9.60;82.30
21787;DHT22;11055;50.870;4.316;2023-04-06T03:04:07;9.70;82.50
21787;DHT22;11055;50.870;4.316;2023-04-06T03:06:32;9.70;82.60
21787;DHT22;11055;50.870;4.316;2023-04-06T03:08:58;9.80;82.10
21787;DHT22;11055;50.870;4.316;2023-04-06T03:11:24;9.90;80.70
21787;DHT22;11055;50.870;4.316;2023-04-06T03:13:51;9.80;80.50
21787;DHT22;11055;50.870;4.316;2023-04-06T03:16:16;9.70;81.40
21787;DHT22;11055;50.870;4.316;2023-04-06T03:18:42;9.60;81.80
21787;DHT22;11055;50.870;4.316;2023-04-06T03:21:10;9.50;83.00
21787;DHT22;11055;50.870;4.316;2023-04-06T03:23:36;9.50;83.80
21787;DHT22;11055;50.870;4.316;2023-04-06T03:26:02;9.40;84.40
21787;DHT22;11055;50.870;4.316;2023-04-06T03:28:28;9.50;84.40
21787;DHT22;11055;50.870;4.316;2023-04-06T03:30:54;9.50;84.40
21787;DHT22;11055;50.870;4.316;2023-04-06T03:33:19;9.50;84.60
21787;DHT22;11055;50.870;4.316;2023-04-06T03:35:45;9.40;85.80
21787;DHT22;11055;50.870;4.316;2023-04-06T03:38:11;9.60;85.70
21787;DHT22;11055;50.870;4.316;2023-04-06T03:40:36;9.70;84.10
21787;DHT22;11055;50.870;4.316;2023-04-06T03:43:03;9.80;83.40
21787;DHT22;11055;50.870;4.316;2023-04-06T03:45:29;9.90;83.10
21787;DHT22;11055;50.870;4.316;2023-04-06T03:47:54;9.70;83.30
21787;DHT22;11055;50.870;4.316;2023-04-06T03:50:20;9.60;84.80
21787;DHT22;11055;50.870;4.316;2023-04-06T03:52:46;9.40;86.00
21787;DHT22;11055;50.870;4.316;2023-04-06T03:55:11;9.40;86.90
21787;DHT22;11055;50.870;4.316;2023-04-06T03:57:37;9.50;87.30
21787;DHT22;11055;50.870;4.316;2023-04-06T04:00:03;9.60;86.80
21787;DHT22;11055;50.870;4.316;2023-04-06T04:02:29;9.60;86.90
21787;DHT22;11055;50.870;4.316;2023-04-06T04:04:55;9.80;85.70
21787;DHT22;11055;50.870;4.316;2023-04-06T04:07:20;10.00;84.30
21787;DHT22;11055;50.870;4.316;2023-04-06T04:09:46;10.20;83.50
21787;DHT22;11055;50.870;4.316;2023-04-06T04:12:12;10.20;83.20
21787;DHT22;11055;50.870;4.316;2023-04-06T04:14:39;10.30;83.10
21787;DHT22;11055;50.870;4.316;2023-04-06T04:17:05;10.40;82.80
21787;DHT22;11055;50.870;4.316;2023-04-06T04:19:31;10.40;82.00
21787;DHT22;11055;50.870;4.316;2023-04-06T04:21:56;10.50;82.70
21787;DHT22;11055;50.870;4.316;2023-04-06T04:24:22;10.40;83.30
21787;DHT22;11055;50.870;4.316;2023-04-06T04:26:48;10.50;82.70
21787;DHT22;11055;50.870;4.316;2023-04-06T04:29:13;10.60;82.90
21787;DHT22;11055;50.870;4.316;2023-04-06T04:31:39;10.60;83.20
21787;DHT22;11055;50.870;4.316;2023-04-06T04:34:05;10.40;84.30
21787;DHT22;11055;50.870;4.316;2023-04-06T04:36:32;10.40;85.30
21787;DHT22;11055;50.870;4.316;2023-04-06T04:38:58;10.10;87.30
21787;DHT22;11055;50.870;4.316;2023-04-06T04:41:26;10.00;89.70
21787;DHT22;11055;50.870;4.316;2023-04-06T04:43:52;9.80;91.10
21787;DHT22;11055;50.870;4.316;2023-04-06T04:46:17;9.80;92.00
21787;DHT22;11055;50.870;4.316;2023-04-06T04:48:43;9.60;93.30
21787;DHT22;11055;50.870;4.316;2023-04-06T04:51:09;9.50;94.50
21787;DHT22;11055;50.870;4.316;2023-04-06T04:53:34;9.60;94.70
21787;DHT22;11055;50.870;4.316;2023-04-06T04:56:00;9.50;95.70
21787;DHT22;11055;50.870;4.316;2023-04-06T04:58:26;9.40;97.40
21787;DHT22;11055;50.870;4.316;2023-04-06T05:00:51;9.40;98.20
21787;DHT22;11055;50.870;4.316;2023-04-06T05:03:22;9.50;98.40
21787;DHT22;11055;50.870;4.316;2023-04-06T05:05:48;9.60;98.70
21787;DHT22;11055;50.870;4.316;2023-04-06T05:08:15;9.60;99.20
21787;DHT22;11055;50.870;4.316;2023-04-06T05:10:41;9.80;98.90
21787;DHT22;11055;50.870;4.316;2023-04-06T05:13:07;9.70;99.50
21787;DHT22;11055;50.870;4.316;2023-04-06T05:15:33;9.60;99.90
21787;DHT22;11055;50.870;4.316;2023-04-06T05:18:00;9.60;99.90
21787;DHT22;11055;50.870;4.316;2023-04-06T05:20:26;9.40;99.90
21787;DHT22;11055;50.870;4.316;2023-04-06T05:22:53;9.40;99.90
21787;DHT22;11055;50.870;4.316;2023-04-06T05:25:19;9.50;99.90
21787;DHT22;11055;50.870;4.316;2023-04-06T05:27:44;9.60;99.90
21787;DHT22;11055;50.870;4.316;2023-04-06T05:30:10;9.80;99.90
21787;DHT22;11055;50.870;4.316;2023-04-06T05:32:36;9.80;99.90
21787;DHT22;11055;50.870;4.316;2023-04-06T05:35:02;9.90;99.90
21787;DHT22;11055;50.870;4.316;2023-04-06T05:37:28;9.90;99.90
21787;DHT22;11055;50.870;4.316;2023-04-06T05:39:53;9.90;99.90
21787;DHT22;11055;50.870;4.316;2023-04-06T05:42:19;9.70;99.90
21787;DHT22;11055;50.870;4.316;2023-04-06T05:44:45;9.50;99.90
21787;DHT22;11055;50.870;4.316;2023-04-06T05:47:11;9.40;99.90
21787;DHT22;11055;50.870;4.316;2023-04-06T05:49:36;9.50;99.90
21787;DHT22;11055;50.870;4.316;2023-04-06T05:52:02;9.60;99.90
21787;DHT22;11055;50.870;4.316;2023-04-06T05:54:28;9.50;99.90
21787;DHT22;11055;50.870;4.316;2023-04-06T05:56:53;9.50;99.90
21787;DHT22;11055;50.870;4.316;2023-04-06T05:59:19;9.70;99.90
21787;DHT22;11055;50.870;4.316;2023-04-06T06:01:46;9.70;99.90
21787;DHT22;11055;50.870;4.316;2023-04-06T06:04:11;9.90;99.90
21787;DHT22;11055;50.870;4.316;2023-04-06T06:06:37;10.00;99.90
21787;DHT22;11055;50.870;4.316;2023-04-06T06:09:03;10.10;99.90
21787;DHT22;11055;50.870;4.316;2023-04-06T06:11:29;10.10;99.90
21787;DHT22;11055;50.870;4.316;2023-04-06T06:13:55;10.10;99.90
21787;DHT22;11055;50.870;4.316;2023-04-06T06:16:21;10.20;99.90
21787;DHT22;11055;50.870;4.316;2023-04-06T06:18:47;10.20;99.90
21787;DHT22;11055;50.870;4.316;2023-04-06T06:21:13;10.20;99.90
21787;DHT22;11055;50.870;4.316;2023-04-06T06:23:39;10.30;99.90
21787;DHT22;11055;50.870;4.316;2023-04-06T06:26:05;10.30;99.90
21787;DHT22;11055;50.870;4.316;2023-04-06T06:28:31;10.20;99.90
21787;DHT22;11055;50.870;4.316;2023-04-06T06:30:56;10.20;99.90
21787;DHT22;11055;50.870;4.316;2023-04-06T06:33:24;10.20;99.90
21787;DHT22;11055;50.870;4.316;2023-04-06T06:35:52;10.00;99.90
21787;DHT22;11055;50.870;4.316;2023-04-06T06:38:18;10.00;99.90
21787;DHT22;11055;50.870;4.316;2023-04-06T06:40:45;9.90;99.90
21787;DHT22;11055;50.870;4.316;2023-04-06T06:43:11;9.90;99.90
21787;DHT22;11055;50.870;4.316;2023-04-06T06:45:37;10.00;99.90
21787;DHT22;11055;50.870;4.316;2023-04-06T06:48:02;10.10;99.90
21787;DHT22;11055;50.870;4.316;2023-04-06T06:50:28;10.20;99.90
21787;DHT22;11055;50.870;4.316;2023-04-06T06:52:54;10.20;99.90
21787;DHT22;11055;50.870;4.316;2023-04-06T06:55:20;10.30;99.90
21787;DHT22;11055;50.870;4.316;2023-04-06T06:57:45;10.50;99.90
21787;DHT22;11055;50.870;4.316;2023-04-06T07:00:14;10.40;99.90
21787;DHT22;11055;50.870;4.316;2023-04-06T07:02:40;10.60;99.90
21787;DHT22;11055;50.870;4.316;2023-04-06T07:05:06;10.60;99.90
21787;DHT22;11055;50.870;4.316;2023-04-06T07:07:32;10.00;99.90
21787;DHT22;11055;50.870;4.316;2023-04-06T07:09:59;9.90;99.90
21787;DHT22;11055;50.870;4.316;2023-04-06T07:12:25;9.90;99.90
21787;DHT22;11055;50.870;4.316;2023-04-06T07:14:51;9.80;99.90
21787;DHT22;11055;50.870;4.316;2023-04-06T07:17:16;10.00;99.90
21787;DHT22;11055;50.870;4.316;2023-04-06T07:19:42;10.10;99.90
21787;DHT22;11055;50.870;4.316;2023-04-06T07:22:08;10.30;99.90
21787;DHT22;11055;50.870;4.316;2023-04-06T07:24:34;10.50;99.90
21787;DHT22;11055;50.870;4.316;2023-04-06T07:27:00;10.50;99.90
21787;DHT22;11055;50.870;4.316;2023-04-06T07:29:28;10.70;99.90
21787;DHT22;11055;50.870;4.316;2023-04-06T07:31:54;10.60;99.90
21787;DHT22;11055;50.870;4.316;2023-04-06T07:34:20;10.40;99.90
21787;DHT22;11055;50.870;4.316;2023-04-06T07:36:46;10.50;99.90
21787;DHT22;11055;50.870;4.316;2023-04-06T07:39:12;10.50;99.90
21787;DHT22;11055;50.870;4.316;2023-04-06T07:41:38;10.60;99.90
21787;DHT22;11055;50.870;4.316;2023-04-06T07:44:03;10.50;99.90
21787;DHT22;11055;50.870;4.316;2023-04-06T07:46:30;10.30;99.90
21787;DHT22;11055;50.870;4.316;2023-04-06T07:48:57;10.20;99.90
21787;DHT22;11055;50.870;4.316;2023-04-06T07:51:23;10.20;99.90
21787;DHT22;11055;50.870;4.316;2023-04-06T07:53:50;10.00;99.90
21787;DHT22;11055;50.870;4.316;2023-04-06T07:56:16;10.10;99.90
21787;DHT22;11055;50.870;4.316;2023-04-06T07:58:42;10.10;99.90
21787;DHT22;11055;50.870;4.316;2023-04-06T08:01:07;10.10;99.90
21787;DHT22;11055;50.870;4.316;2023-04-06T08:03:36;9.90;99.90
21787;DHT22;11055;50.870;4.316;2023-04-06T08:06:02;9.90;99.90
21787;DHT22;11055;50.870;4.316;2023-04-06T08:08:28;9.80;99.90
21787;DHT22;11055;50.870;4.316;2023-04-06T08:10:54;9.90;99.90
21787;DHT22;11055;50.870;4.316;2023-04-06T08:13:20;9.90;99.90
21787;DHT22;11055;50.870;4.316;2023-04-06T08:15:46;9.90;99.90
21787;DHT22;11055;50.870;4.316;2023-04-06T08:18:12;9.70;99.90
21787;DHT22;11055;50.870;4.316;2023-04-06T08:20:39;9.70;99.90
21787;DHT22;11055;50.870;4.316;2023-04-06T08:23:05;9.70;99.90
21787;DHT22;11055;50.870;4.316;2023-04-06T08:25:33;9.70;99.90
21787;DHT22;11055;50.870;4.316;2023-04-06T08:27:59;9.60;99.90
21787;DHT22;11055;50.870;4.316;2023-04-06T08:30:25;9.60;99.90
21787;DHT22;11055;50.870;4.316;2023-04-06T08:32:50;9.60;99.90
21787;DHT22;11055;50.870;4.316;2023-04-06T08:35:16;9.60;99.90
21787;DHT22;11055;50.870;4.316;2023-04-06T08:37:42;9.60;99.90
21787;DHT22;11055;50.870;4.316;2023-04-06T08:40:08;9.70;99.90
21787;DHT22;11055;50.870;4.316;2023-04-06T08:42:39;9.70;99.90
21787;DHT22;11055;50.870;4.316;2023-04-06T08:45:08;9.80;99.90
21787;DHT22;11055;50.870;4.316;2023-04-06T08:47:35;9.90;99.90
21787;DHT22;11055;50.870;4.316;2023-04-06T08:50:04;10.00;99.90
21787;DHT22;11055;50.870;4.316;2023-04-06T08:52:32;9.90;99.90
21787;DHT22;11055;50.870;4.316;2023-04-06T08:54:59;9.80;99.90
21787;DHT22;11055;50.870;4.316;2023-04-06T08:57:26;9.60;99.90
21787;DHT22;11055;50.870;4.316;2023-04-06T08:59:52;9.60;99.90
21787;DHT22;11055;50.870;4.316;2023-04-06T09:02:18;9.70;99.90
21787;DHT22;11055;50.870;4.316;2023-04-06T09:04:48;9.80;99.90
21787;DHT22;11055;50.870;4.316;2023-04-06T09:07:15;9.80;99.90
21787;DHT22;11055;50.870;4.316;2023-04-06T09:09:41;9.70;99.90
21787;DHT22;11055;50.870;4.316;2023-04-06T09:12:29;9.70;99.90
21787;DHT22;11055;50.870;4.316;2023-04-06T09:14:59;9.90;99.90
21787;DHT22;11055;50.870;4.316;2023-04-06T09:17:29;9.90;99.90
21787;DHT22;11055;50.870;4.316;2023-04-06T09:19:57;9.80;99.90
21787;DHT22;11055;50.870;4.316;2023-04-06T09:22:23;9.80;99.90
21787;DHT22;11055;50.870;4.316;2023-04-06T09:24:54;9.80;99.90
21787;DHT22;11055;50.870;4.316;2023-04-06T09:27:33;9.70;99.90
21787;DHT22;11055;50.870;4.316;2023-04-06T09:30:04;9.90;99.90
21787;DHT22;11055;50.870;4.316;2023-04-06T09:32:31;9.90;99.90
21787;DHT22;11055;50.870;4.316;2023-04-06T09:35:07;9.80;99.90
21787;DHT22;11055;50.870;4.316;2023-04-06T09:37:35;9.90;99.90
21787;DHT22;11055;50.870;4.316;2023-04-06T09:40:05;9.70;99.90
21787;DHT22;11055;50.870;4.316;2023-04-06T09:42:31;9.60;99.90
21787;DHT22;11055;50.870;4.316;2023-04-06T09:44:57;9.60;99.90
21787;DHT22;11055;50.870;4.316;2023-04-06T09:47:23;9.40;99.90
21787;DHT22;11055;50.870;4.316;2023-04-06T09:49:50;9.50;99.90
21787;DHT22;11055;50.870;4.316;2023-04-06T09:52:21;9.50;99.90
21787;DHT22;11055;50.870;4.316;2023-04-06T09:54:50;9.60;99.90
21787;DHT22;11055;50.870;4.316;2023-04-06T10:00:07;9.80;99.90
21787;DHT22;11055;50.870;4.316;2023-04-06T10:02:58;9.70;99.90
21787;DHT22;11055;50.870;4.316;2023-04-06T10:05:33;9.90;99.90
21787;DHT22;11055;50.870;4.316;2023-04-06T10:08:08;9.80;99.90
21787;DHT22;11055;50.870;4.316;2023-04-06T10:10:34;10.00;99.90
21787;DHT22;11055;50.870;4.316;2023-04-06T10:13:00;10.00;99.90
21787;DHT22;11055;50.870;4.316;2023-04-06T10:15:28;9.90;99.90
21787;DHT22;11055;50.870;4.316;2023-04-06T10:17:56;9.90;99.90
21787;DHT22;11055;50.870;4.316;2023-04-06T10:20:43;9.90;99.90
21787;DHT22;11055;50.870;4.316;2023-04-06T10:23:15;10.00;99.90
21787;DHT22;11055;50.870;4.316;2023-04-06T10:25:56;9.90;99.90
21787;DHT22;11055;50.870;4.316;2023-04-06T10:28:22;9.80;99.90
21787;DHT22;11055;50.870;4.316;2023-04-06T10:30:48;9.80;99.90
21787;DHT22;11055;50.870;4.316;2023-04-06T10:33:19;9.90;99.90
21787;DHT22;11055;50.870;4.316;2023-04-06T10:35:46;9.80;99.90
21787;DHT22;11055;50.870;4.316;2023-04-06T10:38:12;9.90;99.90
21787;DHT22;11055;50.870;4.316;2023-04-06T10:40:46;10.00;99.90
21787;DHT22;11055;50.870;4.316;2023-04-06T10:43:21;9.90;99.90
21787;DHT22;11055;50.870;4.316;2023-04-06T10:45:59;9.80;99.90
21787;DHT22;11055;50.870;4.316;2023-04-06T10:48:40;9.80;99.90
21787;DHT22;11055;50.870;4.316;2023-04-06T10:53:36;10.00;99.90
21787;DHT22;11055;50.870;4.316;2023-04-06T10:56:02;10.10;99.90
21787;DHT22;11055;50.870;4.316;2023-04-06T10:58:29;10.10;99.90
21787;DHT22;11055;50.870;4.316;2023-04-06T11:00:56;10.00;99.90
21787;DHT22;11055;50.870;4.316;2023-04-06T11:03:22;10.00;99.90
21787;DHT22;11055;50.870;4.316;2023-04-06T11:05:50;9.60;99.90
21787;DHT22;11055;50.870;4.316;2023-04-06T11:08:26;10.00;99.90
21787;DHT22;11055;50.870;4.316;2023-04-06T11:11:06;10.10;99.90
21787;DHT22;11055;50.870;4.316;2023-04-06T11:13:45;10.20;99.90
21787;DHT22;11055;50.870;4.316;2023-04-06T11:16:13;10.20;99.90
21787;DHT22;11055;50.870;4.316;2023-04-06T11:18:50;10.20;99.90
21787;DHT22;11055;50.870;4.316;2023-04-06T11:21:16;10.10;99.90
21787;DHT22;11055;50.870;4.316;2023-04-06T11:23:42;10.10;99.90
21787;DHT22;11055;50.870;4.316;2023-04-06T11:26:12;10.20;99.90
21787;DHT22;11055;50.870;4.316;2023-04-06T11:28:41;10.30;99.90
21787;DHT22;11055;50.870;4.316;2023-04-06T11:31:07;10.40;99.90
21787;DHT22;11055;50.870;4.316;2023-04-06T11:33:37;10.60;99.90
21787;DHT22;11055;50.870;4.316;2023-04-06T11:36:04;10.70;99.90
21787;DHT22;11055;50.870;4.316;2023-04-06T11:38:31;10.60;99.90
21787;DHT22;11055;50.870;4.316;2023-04-06T11:40:58;10.60;99.90
21787;DHT22;11055;50.870;4.316;2023-04-06T11:43:30;10.60;99.90
21787;DHT22;11055;50.870;4.316;2023-04-06T11:46:03;10.50;99.90
21787;DHT22;11055;50.870;4.316;2023-04-06T11:48:30;10.50;99.90
21787;DHT22;11055;50.870;4.316;2023-04-06T11:51:01;10.40;99.90
21787;DHT22;11055;50.870;4.316;2023-04-06T11:53:29;10.30;99.90
21787;DHT22;11055;50.870;4.316;2023-04-06T11:55:56;10.40;99.90
21787;DHT22;11055;50.870;4.316;2023-04-06T11:58:22;10.40;99.90
21787;DHT22;11055;50.870;4.316;2023-04-06T12:00:48;10.50;99.90
21787;DHT22;11055;50.870;4.316;2023-04-06T12:03:14;10.50;99.90
21787;DHT22;11055;50.870;4.316;2023-04-06T12:05:40;10.50;99.90
21787;DHT22;11055;50.870;4.316;2023-04-06T12:08:06;10.40;99.90
21787;DHT22;11055;50.870;4.316;2023-04-06T12:10:31;10.50;99.90
21787;DHT22;11055;50.870;4.316;2023-04-06T12:12:57;10.60;99.90
21787;DHT22;11055;50.870;4.316;2023-04-06T12:15:23;10.80;99.90
21787;DHT22;11055;50.870;4.316;2023-04-06T12:17:49;11.00;99.90
21787;DHT22;11055;50.870;4.316;2023-04-06T12:20:17;11.00;99.90
21787;DHT22;11055;50.870;4.316;2023-04-06T12:22:43;11.00;99.90
21787;DHT22;11055;50.870;4.316;2023-04-06T12:25:09;10.90;99.90
21787;DHT22;11055;50.870;4.316;2023-04-06T12:27:34;10.80;99.90
21787;DHT22;11055;50.870;4.316;2023-04-06T12:30:00;10.60;99.90
21787;DHT22;11055;50.870;4.316;2023-04-06T12:32:26;10.70;99.90
21787;DHT22;11055;50.870;4.316;2023-04-06T12:34:52;10.60;99.90
21787;DHT22;11055;50.870;4.316;2023-04-06T12:37:18;10.50;99.90
21787;DHT22;11055;50.870;4.316;2023-04-06T12:39:44;10.60;99.90
21787;DHT22;11055;50.870;4.316;2023-04-06T12:42:11;10.70;99.90
21787;DHT22;11055;50.870;4.316;2023-04-06T12:44:38;10.70;99.90
21787;DHT22;11055;50.870;4.316;2023-04-06T12:47:03;10.50;99.90
21787;DHT22;11055;50.870;4.316;2023-04-06T12:49:30;10.30;99.90
21787;DHT22;11055;50.870;4.316;2023-04-06T12:51:57;10.30;99.90
21787;DHT22;11055;50.870;4.316;2023-04-06T12:54:22;10.30;99.90
21787;DHT22;11055;50.870;4.316;2023-04-06T12:56:48;10.20;99.90
21787;DHT22;11055;50.870;4.316;2023-04-06T12:59:14;10.30;99.90
21787;DHT22;11055;50.870;4.316;2023-04-06T13:01:39;10.20;99.90
21787;DHT22;11055;50.870;4.316;2023-04-06T13:04:05;10.30;99.90
21787;DHT22;11055;50.870;4.316;2023-04-06T13:06:32;10.20;99.90
21787;DHT22;11055;50.870;4.316;2023-04-06T13:08:57;10.20;99.90
21787;DHT22;11055;50.870;4.316;2023-04-06T13:11:23;10.30;99.90
21787;DHT22;11055;50.870;4.316;2023-04-06T13:13:50;10.30;99.90
21787;DHT22;11055;50.870;4.316;2023-04-06T13:16:15;10.30;99.90
21787;DHT22;11055;50.870;4.316;2023-04-06T13:18:41;10.30;99.90
21787;DHT22;11055;50.870;4.316;2023-04-06T13:21:07;10.20;99.90
21787;DHT22;11055;50.870;4.316;2023-04-06T13:23:34;10.30;99.90
21787;DHT22;11055;50.870;4.316;2023-04-06T13:28:28;10.40;99.90
21787;DHT22;11055;50.870;4.316;2023-04-06T13:30:55;10.30;99.90
21787;DHT22;11055;50.870;4.316;2023-04-06T13:33:21;10.30;99.90
21787;DHT22;11055;50.870;4.316;2023-04-06T13:35:47;10.50;99.90
21787;DHT22;11055;50.870;4.316;2023-04-06T13:38:13;10.40;99.90
21787;DHT22;11055;50.870;4.316;2023-04-06T13:40:40;10.40;99.90
21787;DHT22;11055;50.870;4.316;2023-04-06T13:43:07;10.40;99.90
21787;DHT22;11055;50.870;4.316;2023-04-06T13:45:34;10.50;99.90
21787;DHT22;11055;50.870;4.316;2023-04-06T13:48:00;10.60;99.90
21787;DHT22;11055;50.870;4.316;2023-04-06T13:50:27;10.50;99.90
21787;DHT22;11055;50.870;4.316;2023-04-06T13:52:53;10.60;99.90
21787;DHT22;11055;50.870;4.316;2023-04-06T13:55:18;10.60;99.90
21787;DHT22;11055;50.870;4.316;2023-04-06T13:57:44;10.60;99.90
21787;DHT22;11055;50.870;4.316;2023-04-06T14:00:10;10.70;99.90
21787;DHT22;11055;50.870;4.316;2023-04-06T14:02:38;10.60;99.90
21787;DHT22;11055;50.870;4.316;2023-04-06T14:05:04;10.50;99.90
21787;DHT22;11055;50.870;4.316;2023-04-06T14:07:30;10.50;99.90
21787;DHT22;11055;50.870;4.316;2023-04-06T14:09:56;10.40;99.90
21787;DHT22;11055;50.870;4.316;2023-04-06T14:12:21;10.30;99.90
21787;DHT22;11055;50.870;4.316;2023-04-06T14:14:47;10.40;99.90
21787;DHT22;11055;50.870;4.316;2023-04-06T14:17:13;10.40;99.90
21787;DHT22;11055;50.870;4.316;2023-04-06T14:19:38;10.50;99.90
21787;DHT22;11055;50.870;4.316;2023-04-06T14:22:06;10.60;99.90
21787;DHT22;11055;50.870;4.316;2023-04-06T14:24:32;10.60;99.90
21787;DHT22;11055;50.870;4.316;2023-04-06T14:26:58;10.40;99.90
21787;DHT22;11055;50.870;4.316;2023-04-06T14:29:24;10.40;99.90
21787;DHT22;11055;50.870;4.316;2023-04-06T14:31:50;10.50;99.90
21787;DHT22;11055;50.870;4.316;2023-04-06T14:34:15;10.50;99.90
21787;DHT22;11055;50.870;4.316;2023-04-06T14:36:42;10.50;99.90
21787;DHT22;11055;50.870;4.316;2023-04-06T14:39:08;10.60;99.90
21787;DHT22;11055;50.870;4.316;2023-04-06T14:41:35;10.90;99.90
21787;DHT22;11055;50.870;4.316;2023-04-06T14:44:01;11.00;99.90
21787;DHT22;11055;50.870;4.316;2023-04-06T14:46:27;11.10;99.90
21787;DHT22;11055;50.870;4.316;2023-04-06T14:48:56;11.20;99.90
21787;DHT22;11055;50.870;4.316;2023-04-06T14:51:24;11.20;99.90
21787;DHT22;11055;50.870;4.316;2023-04-06T14:53:52;11.20;99.90
21787;DHT22;11055;50.870;4.316;2023-04-06T14:56:22;11.30;99.90
21787;DHT22;11055;50.870;4.316;2023-04-06T14:58:48;11.30;99.90
21787;DHT22;11055;50.870;4.316;2023-04-06T15:01:14;11.20;99.90
21787;DHT22;11055;50.870;4.316;2023-04-06T15:03:40;11.40;99.90
21787;DHT22;11055;50.870;4.316;2023-04-06T15:06:11;11.60;99.90
21787;DHT22;11055;50.870;4.316;2023-04-06T15:08:36;11.80;99.90
21787;DHT22;11055;50.870;4.316;2023-04-06T15:11:02;11.90;99.90
21787;DHT22;11055;50.870;4.316;2023-04-06T15:13:27;11.70;99.90
21787;DHT22;11055;50.870;4.316;2023-04-06T15:15:53;11.70;99.90
21787;DHT22;11055;50.870;4.316;2023-04-06T15:18:19;11.60;99.90
21787;DHT22;11055;50.870;4.316;2023-04-06T15:20:45;11.70;99.90
21787;DHT22;11055;50.870;4.316;2023-04-06T15:23:11;11.60;99.90
21787;DHT22;11055;50.870;4.316;2023-04-06T15:25:36;11.50;99.90
21787;DHT22;11055;50.870;4.316;2023-04-06T15:28:06;11.40;99.90
21787;DHT22;11055;50.870;4.316;2023-04-06T15:30:32;11.60;99.90
21787;DHT22;11055;50.870;4.316;2023-04-06T15:32:59;11.80;99.90
21787;DHT22;11055;50.870;4.316;2023-04-06T15:35:29;12.00;99.90
21787;DHT22;11055;50.870;4.316;2023-04-06T15:37:55;12.00;99.90
21787;DHT22;11055;50.870;4.316;2023-04-06T15:40:23;11.90;99.90
21787;DHT22;11055;50.870;4.316;2023-04-06T15:42:49;12.10;99.90